sensor_id;sensor_type;location;lat;lon;timestamp;temperature;humidity
2907;DHT22;1463;51.070;16.998;2023-07-13T00:02:03;23.50;99.90
2907;DHT22;1463;51.070;16.998;2023-07-13T00:04:31;23.50;99.90
2907;DHT22;1463;51.070;16.998;2023-07-13T00:06:58;23.50;99.90
2907;DHT22;1463;51.070;16.998;2023-07-13T00:09:27;23.50;99.90
2907;DHT22;1463;51.070;16.998;2023-07-13T00:11:59;23.50;99.90
2907;DHT22;1463;51.070;16.998;2023-07-13T00:14:29;23.50;99.90
2907;DHT22;1463;51.070;16.998;2023-07-13T00:16:57;23.50;99.90
2907;DHT22;1463;51.070;16.998;2023-07-13T00:19:26;23.50;99.90
2907;DHT22;1463;51.070;16.998;2023-07-13T00:21:53;23.50;99.90
2907;DHT22;1463;51.070;16.998;2023-07-13T00:24:21;23.60;99.90
2907;DHT22;1463;51.070;16.998;2023-07-13T00:26:51;23.70;99.90
2907;DHT22;1463;51.070;16.998;2023-07-13T00:29:18;23.60;99.90
2907;DHT22;1463;51.070;16.998;2023-07-13T00:31:47;23.60;99.90
2907;DHT22;1463;51.070;16.998;2023-07-13T00:34:14;23.50;99.90
2907;DHT22;1463;51.070;16.998;2023-07-13T00:36:41;23.50;99.90
2907;DHT22;1463;51.070;16.998;2023-07-13T00:39:09;23.40;99.90
2907;DHT22;1463;51.070;16.998;2023-07-13T00:41:36;23.40;99.90
2907;DHT22;1463;51.070;16.998;2023-07-13T00:44:11;23.40;99.90
2907;DHT22;1463;51.070;16.998;2023-07-13T00:46:41;23.40;99.90
2907;DHT22;1463;51.070;16.998;2023-07-13T00:49:11;23.70;99.90
2907;DHT22;1463;51.070;16.998;2023-07-13T00:51:43;23.80;99.90
2907;DHT22;1463;51.070;16.998;2023-07-13T00:54:17;23.80;99.90
2907;DHT22;1463;51.070;16.998;2023-07-13T00:56:47;23.70;99.90
2907;DHT22;1463;51.070;16.998;2023-07-13T00:59:17;23.50;99.90
2907;DHT22;1463;51.070;16.998;2023-07-13T01:01:46;23.40;99.90
2907;DHT22;1463;51.070;16.998;2023-07-13T01:04:13;23.30;99.90
2907;DHT22;1463;51.070;16.998;2023-07-13T01:06:41;23.10;99.90
2907;DHT22;1463;51.070;16.998;2023-07-13T01:09:10;23.10;99.90
2907;DHT22;1463;51.070;16.998;2023-07-13T01:11:38;23.20;99.90
2907;DHT22;1463;51.070;16.998;2023-07-13T01:14:07;23.20;99.90
2907;DHT22;1463;51.070;16.998;2023-07-13T01:16:37;23.00;99.90
2907;DHT22;1463;51.070;16.998;2023-07-13T01:19:12;22.90;99.90
2907;DHT22;1463;51.070;16.998;2023-07-13T01:21:44;22.80;99.90
2907;DHT22;1463;51.070;16.998;2023-07-13T01:24:16;22.90;99.90
2907;DHT22;1463;51.070;16.998;2023-07-13T01:26:44;23.00;99.90
2907;DHT22;1463;51.070;16.998;2023-07-13T01:29:11;23.00;99.90
2907;DHT22;1463;51.070;16.998;2023-07-13T01:31:39;23.00;99.90
2907;DHT22;1463;51.070;16.998;2023-07-13T01:34:06;23.00;99.90
2907;DHT22;1463;51.070;16.998;2023-07-13T01:36:34;22.90;99.90
2907;DHT22;1463;51.070;16.998;2023-07-13T01:39:03;22.90;99.90
2907;DHT22;1463;51.070;16.998;2023-07-13T01:41:30;22.80;99.90
2907;DHT22;1463;51.070;16.998;2023-07-13T01:43:58;22.60;99.90
2907;DHT22;1463;51.070;16.998;2023-07-13T01:46:27;22.50;99.90
2907;DHT22;1463;51.070;16.998;2023-07-13T01:48:54;22.60;99.90
2907;DHT22;1463;51.070;16.998;2023-07-13T01:51:22;22.70;99.90
2907;DHT22;1463;51.070;16.998;2023-07-13T01:53:49;22.70;99.90
2907;DHT22;1463;51.070;16.998;2023-07-13T01:56:19;22.70;99.90
2907;DHT22;1463;51.070;16.998;2023-07-13T01:58:46;22.60;99.90
2907;DHT22;1463;51.070;16.998;2023-07-13T02:01:14;22.60;99.90
2907;DHT22;1463;51.070;16.998;2023-07-13T02:03:42;22.60;99.90
2907;DHT22;1463;51.070;16.998;2023-07-13T02:06:09;22.70;99.90
2907;DHT22;1463;51.070;16.998;2023-07-13T02:08:37;22.70;99.90
2907;DHT22;1463;51.070;16.998;2023-07-13T02:11:05;22.70;99.90
2907;DHT22;1463;51.070;16.998;2023-07-13T02:13:34;22.70;99.90
2907;DHT22;1463;51.070;16.998;2023-07-13T02:16:02;22.70;99.90
2907;DHT22;1463;51.070;16.998;2023-07-13T02:18:29;22.60;99.90
2907;DHT22;1463;51.070;16.998;2023-07-13T02:20:57;22.70;99.90
2907;DHT22;1463;51.070;16.998;2023-07-13T02:23:24;22.60;99.90
2907;DHT22;1463;51.070;16.998;2023-07-13T02:25:55;22.50;99.90
2907;DHT22;1463;51.070;16.998;2023-07-13T02:28:22;22.50;99.90
2907;DHT22;1463;51.070;16.998;2023-07-13T02:30:51;22.50;99.90
2907;DHT22;1463;51.070;16.998;2023-07-13T02:33:19;22.50;99.90
2907;DHT22;1463;51.070;16.998;2023-07-13T02:35:46;22.50;99.90
2907;DHT22;1463;51.070;16.998;2023-07-13T02:38:14;22.40;99.90
2907;DHT22;1463;51.070;16.998;2023-07-13T02:40:41;22.40;99.90
2907;DHT22;1463;51.070;16.998;2023-07-13T02:43:09;22.40;99.90
2907;DHT22;1463;51.070;16.998;2023-07-13T02:45:36;22.40;99.90
2907;DHT22;1463;51.070;16.998;2023-07-13T02:48:06;22.40;99.90
2907;DHT22;1463;51.070;16.998;2023-07-13T02:50:34;22.30;99.90
2907;DHT22;1463;51.070;16.998;2023-07-13T02:53:01;22.30;99.90
2907;DHT22;1463;51.070;16.998;2023-07-13T02:55:28;22.30;99.90
2907;DHT22;1463;51.070;16.998;2023-07-13T02:57:56;22.40;99.90
2907;DHT22;1463;51.070;16.998;2023-07-13T03:00:24;22.50;99.90
2907;DHT22;1463;51.070;16.998;2023-07-13T03:02:51;22.40;99.90
2907;DHT22;1463;51.070;16.998;2023-07-13T03:05:20;22.40;99.90
2907;DHT22;1463;51.070;16.998;2023-07-13T03:07:48;22.40;99.90
2907;DHT22;1463;51.070;16.998;2023-07-13T03:10:15;22.50;99.90
2907;DHT22;1463;51.070;16.998;2023-07-13T03:12:43;22.50;99.90
2907;DHT22;1463;51.070;16.998;2023-07-13T03:15:13;22.40;99.90
2907;DHT22;1463;51.070;16.998;2023-07-13T03:17:43;22.50;99.90
2907;DHT22;1463;51.070;16.998;2023-07-13T03:20:11;22.50;99.90
2907;DHT22;1463;51.070;16.998;2023-07-13T03:22:42;22.50;99.90
2907;DHT22;1463;51.070;16.998;2023-07-13T03:25:09;22.50;99.90
2907;DHT22;1463;51.070;16.998;2023-07-13T03:27:37;22.50;99.90
2907;DHT22;1463;51.070;16.998;2023-07-13T03:30:09;22.50;99.90
2907;DHT22;1463;51.070;16.998;2023-07-13T03:32:37;22.50;99.90
2907;DHT22;1463;51.070;16.998;2023-07-13T03:35:05;22.50;99.90
2907;DHT22;1463;51.070;16.998;2023-07-13T03:37:34;22.60;99.90
2907;DHT22;1463;51.070;16.998;2023-07-13T03:40:08;22.60;99.90
2907;DHT22;1463;51.070;16.998;2023-07-13T03:42:37;22.50;99.90
2907;DHT22;1463;51.070;16.998;2023-07-13T03:45:06;22.50;99.90
2907;DHT22;1463;51.070;16.998;2023-07-13T03:47:34;22.50;99.90
2907;DHT22;1463;51.070;16.998;2023-07-13T03:50:01;22.60;99.90
2907;DHT22;1463;51.070;16.998;2023-07-13T03:52:29;22.70;99.90
2907;DHT22;1463;51.070;16.998;2023-07-13T03:54:57;22.70;99.90
2907;DHT22;1463;51.070;16.998;2023-07-13T03:57:26;22.80;99.90
2907;DHT22;1463;51.070;16.998;2023-07-13T03:59:53;22.80;99.90
2907;DHT22;1463;51.070;16.998;2023-07-13T04:02:20;22.70;99.90
2907;DHT22;1463;51.070;16.998;2023-07-13T04:04:48;22.70;99.90
2907;DHT22;1463;51.070;16.998;2023-07-13T04:07:15;22.70;99.90
2907;DHT22;1463;51.070;16.998;2023-07-13T04:09:43;22.70;99.90
2907;DHT22;1463;51.070;16.998;2023-07-13T04:12:11;22.70;99.90
2907;DHT22;1463;51.070;16.998;2023-07-13T04:14:43;22.80;99.90
2907;DHT22;1463;51.070;16.998;2023-07-13T04:17:12;22.80;99.90
2907;DHT22;1463;51.070;16.998;2023-07-13T04:19:39;22.70;99.90
2907;DHT22;1463;51.070;16.998;2023-07-13T04:22:07;22.90;99.90
2907;DHT22;1463;51.070;16.998;2023-07-13T04:24:35;23.00;99.90
2907;DHT22;1463;51.070;16.998;2023-07-13T04:27:03;23.30;99.90
2907;DHT22;1463;51.070;16.998;2023-07-13T04:29:34;23.50;99.90
2907;DHT22;1463;51.070;16.998;2023-07-13T04:32:05;23.40;99.90
2907;DHT22;1463;51.070;16.998;2023-07-13T04:34:34;23.40;99.90
2907;DHT22;1463;51.070;16.998;2023-07-13T04:37:02;23.30;99.90
2907;DHT22;1463;51.070;16.998;2023-07-13T04:39:30;23.00;99.90
2907;DHT22;1463;51.070;16.998;2023-07-13T04:41:58;22.70;99.90
2907;DHT22;1463;51.070;16.998;2023-07-13T04:44:26;22.30;99.90
2907;DHT22;1463;51.070;16.998;2023-07-13T04:46:54;21.90;99.90
2907;DHT22;1463;51.070;16.998;2023-07-13T04:49:26;21.60;99.90
2907;DHT22;1463;51.070;16.998;2023-07-13T04:51:55;21.30;99.90
2907;DHT22;1463;51.070;16.998;2023-07-13T04:54:29;21.00;99.90
2907;DHT22;1463;51.070;16.998;2023-07-13T04:57:04;20.90;99.90
2907;DHT22;1463;51.070;16.998;2023-07-13T04:59:41;20.70;99.90
2907;DHT22;1463;51.070;16.998;2023-07-13T05:02:09;20.60;99.90
2907;DHT22;1463;51.070;16.998;2023-07-13T05:04:39;20.60;99.90
2907;DHT22;1463;51.070;16.998;2023-07-13T05:07:06;20.40;99.90
2907;DHT22;1463;51.070;16.998;2023-07-13T05:09:34;20.30;99.90
2907;DHT22;1463;51.070;16.998;2023-07-13T05:12:03;20.20;99.90
2907;DHT22;1463;51.070;16.998;2023-07-13T05:14:31;20.20;99.90
2907;DHT22;1463;51.070;16.998;2023-07-13T05:16:58;20.20;99.90
2907;DHT22;1463;51.070;16.998;2023-07-13T05:19:26;20.20;99.90
2907;DHT22;1463;51.070;16.998;2023-07-13T05:21:55;20.20;99.90
2907;DHT22;1463;51.070;16.998;2023-07-13T05:24:24;20.20;99.90
2907;DHT22;1463;51.070;16.998;2023-07-13T05:26:52;20.20;99.90
2907;DHT22;1463;51.070;16.998;2023-07-13T05:29:20;20.20;99.90
2907;DHT22;1463;51.070;16.998;2023-07-13T05:31:48;20.10;99.90
2907;DHT22;1463;51.070;16.998;2023-07-13T05:34:16;20.00;99.90
2907;DHT22;1463;51.070;16.998;2023-07-13T05:36:44;20.00;99.90
2907;DHT22;1463;51.070;16.998;2023-07-13T05:39:13;19.90;99.90
2907;DHT22;1463;51.070;16.998;2023-07-13T05:41:40;20.00;99.90
2907;DHT22;1463;51.070;16.998;2023-07-13T05:44:08;20.10;99.90
2907;DHT22;1463;51.070;16.998;2023-07-13T05:46:35;20.20;99.90
2907;DHT22;1463;51.070;16.998;2023-07-13T05:49:03;20.20;99.90
2907;DHT22;1463;51.070;16.998;2023-07-13T05:51:30;20.20;99.90
2907;DHT22;1463;51.070;16.998;2023-07-13T05:53:58;20.20;99.90
2907;DHT22;1463;51.070;16.998;2023-07-13T05:56:27;20.10;99.90
2907;DHT22;1463;51.070;16.998;2023-07-13T05:58:56;20.20;99.90
2907;DHT22;1463;51.070;16.998;2023-07-13T06:01:24;20.10;99.90
2907;DHT22;1463;51.070;16.998;2023-07-13T06:03:53;20.10;99.90
2907;DHT22;1463;51.070;16.998;2023-07-13T06:06:21;20.20;99.90
2907;DHT22;1463;51.070;16.998;2023-07-13T06:08:48;20.30;99.90
2907;DHT22;1463;51.070;16.998;2023-07-13T06:11:18;20.40;99.90
2907;DHT22;1463;51.070;16.998;2023-07-13T06:13:50;20.40;99.90
2907;DHT22;1463;51.070;16.998;2023-07-13T06:16:18;20.40;99.90
2907;DHT22;1463;51.070;16.998;2023-07-13T06:18:46;20.50;99.90
2907;DHT22;1463;51.070;16.998;2023-07-13T06:21:15;20.50;99.90
2907;DHT22;1463;51.070;16.998;2023-07-13T06:23:44;20.60;99.90
2907;DHT22;1463;51.070;16.998;2023-07-13T06:26:13;20.70;99.90
2907;DHT22;1463;51.070;16.998;2023-07-13T06:28:41;20.80;99.90
2907;DHT22;1463;51.070;16.998;2023-07-13T06:31:11;20.80;99.90
2907;DHT22;1463;51.070;16.998;2023-07-13T06:33:39;20.90;99.90
2907;DHT22;1463;51.070;16.998;2023-07-13T06:36:08;21.00;99.90
2907;DHT22;1463;51.070;16.998;2023-07-13T06:38:35;21.10;99.90
2907;DHT22;1463;51.070;16.998;2023-07-13T06:41:03;21.00;99.90
2907;DHT22;1463;51.070;16.998;2023-07-13T06:43:31;21.00;99.90
2907;DHT22;1463;51.070;16.998;2023-07-13T06:45:59;21.00;99.90
2907;DHT22;1463;51.070;16.998;2023-07-13T06:48:28;21.00;99.90
2907;DHT22;1463;51.070;16.998;2023-07-13T06:50:55;21.20;99.90
2907;DHT22;1463;51.070;16.998;2023-07-13T06:53:23;21.10;99.90
2907;DHT22;1463;51.070;16.998;2023-07-13T06:55:51;21.10;99.90
2907;DHT22;1463;51.070;16.998;2023-07-13T06:58:19;21.20;99.90
2907;DHT22;1463;51.070;16.998;2023-07-13T07:00:53;21.20;99.90
2907;DHT22;1463;51.070;16.998;2023-07-13T07:03:21;21.10;99.90
2907;DHT22;1463;51.070;16.998;2023-07-13T07:05:52;21.00;99.90
2907;DHT22;1463;51.070;16.998;2023-07-13T07:08:20;20.80;99.90
2907;DHT22;1463;51.070;16.998;2023-07-13T07:10:48;20.60;99.90
2907;DHT22;1463;51.070;16.998;2023-07-13T07:13:21;20.60;99.90
2907;DHT22;1463;51.070;16.998;2023-07-13T07:15:50;20.60;99.90
2907;DHT22;1463;51.070;16.998;2023-07-13T07:18:18;20.50;99.90
2907;DHT22;1463;51.070;16.998;2023-07-13T07:20:45;20.40;99.90
2907;DHT22;1463;51.070;16.998;2023-07-13T07:23:17;20.40;99.90
2907;DHT22;1463;51.070;16.998;2023-07-13T07:25:45;20.40;99.90
2907;DHT22;1463;51.070;16.998;2023-07-13T07:28:18;20.40;99.90
2907;DHT22;1463;51.070;16.998;2023-07-13T07:30:45;20.30;99.90
2907;DHT22;1463;51.070;16.998;2023-07-13T07:33:14;20.20;99.90
2907;DHT22;1463;51.070;16.998;2023-07-13T07:35:43;20.20;99.90
2907;DHT22;1463;51.070;16.998;2023-07-13T07:38:11;20.20;99.90
2907;DHT22;1463;51.070;16.998;2023-07-13T07:40:41;20.30;99.90
2907;DHT22;1463;51.070;16.998;2023-07-13T07:43:10;20.20;99.90
2907;DHT22;1463;51.070;16.998;2023-07-13T07:45:38;20.20;99.90
2907;DHT22;1463;51.070;16.998;2023-07-13T07:48:06;20.10;99.90
2907;DHT22;1463;51.070;16.998;2023-07-13T07:50:37;20.20;99.90
2907;DHT22;1463;51.070;16.998;2023-07-13T07:53:05;20.20;99.90
2907;DHT22;1463;51.070;16.998;2023-07-13T07:55:34;20.20;99.90
2907;DHT22;1463;51.070;16.998;2023-07-13T07:58:04;20.30;99.90
2907;DHT22;1463;51.070;16.998;2023-07-13T08:00:32;20.50;99.90
2907;DHT22;1463;51.070;16.998;2023-07-13T08:02:59;20.60;99.90
2907;DHT22;1463;51.070;16.998;2023-07-13T08:05:27;20.60;99.90
2907;DHT22;1463;51.070;16.998;2023-07-13T08:07:54;20.70;99.90
2907;DHT22;1463;51.070;16.998;2023-07-13T08:10:22;20.90;99.90
2907;DHT22;1463;51.070;16.998;2023-07-13T08:12:49;20.80;99.90
2907;DHT22;1463;51.070;16.998;2023-07-13T08:15:18;21.00;99.90
2907;DHT22;1463;51.070;16.998;2023-07-13T08:17:47;21.00;99.90
2907;DHT22;1463;51.070;16.998;2023-07-13T08:20:15;21.30;99.90
2907;DHT22;1463;51.070;16.998;2023-07-13T08:22:43;21.50;99.90
2907;DHT22;1463;51.070;16.998;2023-07-13T08:25:10;21.40;99.90
2907;DHT22;1463;51.070;16.998;2023-07-13T08:27:38;21.30;99.90
2907;DHT22;1463;51.070;16.998;2023-07-13T08:30:06;21.30;99.90
2907;DHT22;1463;51.070;16.998;2023-07-13T08:32:36;21.40;99.90
2907;DHT22;1463;51.070;16.998;2023-07-13T08:35:05;21.40;99.90
2907;DHT22;1463;51.070;16.998;2023-07-13T08:37:33;21.50;99.90
2907;DHT22;1463;51.070;16.998;2023-07-13T08:40:00;21.40;99.90
2907;DHT22;1463;51.070;16.998;2023-07-13T08:42:36;21.40;99.90
2907;DHT22;1463;51.070;16.998;2023-07-13T08:45:11;21.40;99.90
2907;DHT22;1463;51.070;16.998;2023-07-13T08:47:44;21.40;99.90
2907;DHT22;1463;51.070;16.998;2023-07-13T08:50:15;21.50;99.90
2907;DHT22;1463;51.070;16.998;2023-07-13T08:52:46;21.30;99.90
2907;DHT22;1463;51.070;16.998;2023-07-13T08:55:17;21.30;99.90
2907;DHT22;1463;51.070;16.998;2023-07-13T08:57:48;21.40;99.90
2907;DHT22;1463;51.070;16.998;2023-07-13T09:00:18;21.70;99.90
2907;DHT22;1463;51.070;16.998;2023-07-13T09:02:52;21.90;99.90
2907;DHT22;1463;51.070;16.998;2023-07-13T09:05:26;21.80;99.90
2907;DHT22;1463;51.070;16.998;2023-07-13T09:08:12;22.00;99.90
2907;DHT22;1463;51.070;16.998;2023-07-13T09:10:45;22.00;99.90
2907;DHT22;1463;51.070;16.998;2023-07-13T09:13:23;22.10;99.90
2907;DHT22;1463;51.070;16.998;2023-07-13T09:15:54;22.00;99.90
2907;DHT22;1463;51.070;16.998;2023-07-13T09:18:28;22.10;99.90
2907;DHT22;1463;51.070;16.998;2023-07-13T09:21:00;22.30;99.90
2907;DHT22;1463;51.070;16.998;2023-07-13T09:23:30;22.40;99.90
2907;DHT22;1463;51.070;16.998;2023-07-13T09:26:02;22.60;99.90
2907;DHT22;1463;51.070;16.998;2023-07-13T09:28:37;22.60;99.90
2907;DHT22;1463;51.070;16.998;2023-07-13T09:31:11;22.70;99.90
2907;DHT22;1463;51.070;16.998;2023-07-13T09:33:42;22.50;99.90
2907;DHT22;1463;51.070;16.998;2023-07-13T09:36:19;22.20;99.90
2907;DHT22;1463;51.070;16.998;2023-07-13T09:38:48;22.20;99.90
2907;DHT22;1463;51.070;16.998;2023-07-13T09:41:21;22.30;99.90
2907;DHT22;1463;51.070;16.998;2023-07-13T09:44:10;22.20;99.90
2907;DHT22;1463;51.070;16.998;2023-07-13T09:46:39;22.40;99.90
2907;DHT22;1463;51.070;16.998;2023-07-13T09:49:11;22.60;99.90
2907;DHT22;1463;51.070;16.998;2023-07-13T09:51:41;22.80;99.90
2907;DHT22;1463;51.070;16.998;2023-07-13T09:54:19;22.90;99.90
2907;DHT22;1463;51.070;16.998;2023-07-13T09:56:47;23.20;99.90
2907;DHT22;1463;51.070;16.998;2023-07-13T09:59:19;23.30;99.90
2907;DHT22;1463;51.070;16.998;2023-07-13T10:01:47;23.30;99.90
2907;DHT22;1463;51.070;16.998;2023-07-13T10:04:19;23.40;99.90
2907;DHT22;1463;51.070;16.998;2023-07-13T10:07:05;23.60;99.90
2907;DHT22;1463;51.070;16.998;2023-07-13T10:09:33;23.90;99.90
2907;DHT22;1463;51.070;16.998;2023-07-13T10:12:01;24.00;99.90
2907;DHT22;1463;51.070;16.998;2023-07-13T10:14:29;24.20;99.90
2907;DHT22;1463;51.070;16.998;2023-07-13T10:16:59;24.40;99.90
2907;DHT22;1463;51.070;16.998;2023-07-13T10:19:34;24.30;99.90
2907;DHT22;1463;51.070;16.998;2023-07-13T10:22:10;24.40;99.90
2907;DHT22;1463;51.070;16.998;2023-07-13T10:24:42;24.30;99.90
2907;DHT22;1463;51.070;16.998;2023-07-13T10:27:13;24.40;99.90
2907;DHT22;1463;51.070;16.998;2023-07-13T10:29:46;24.50;99.90
2907;DHT22;1463;51.070;16.998;2023-07-13T10:32:15;24.50;99.90
2907;DHT22;1463;51.070;16.998;2023-07-13T10:34:46;24.50;99.90
2907;DHT22;1463;51.070;16.998;2023-07-13T10:37:18;24.50;99.90
2907;DHT22;1463;51.070;16.998;2023-07-13T10:39:48;24.50;99.90
2907;DHT22;1463;51.070;16.998;2023-07-13T10:42:25;24.50;99.90
2907;DHT22;1463;51.070;16.998;2023-07-13T10:44:56;24.50;99.90
2907;DHT22;1463;51.070;16.998;2023-07-13T10:47:24;24.60;99.90
2907;DHT22;1463;51.070;16.998;2023-07-13T10:49:58;24.60;99.90
2907;DHT22;1463;51.070;16.998;2023-07-13T10:52:46;24.70;99.90
2907;DHT22;1463;51.070;16.998;2023-07-13T10:55:34;24.80;99.90
2907;DHT22;1463;51.070;16.998;2023-07-13T10:58:10;25.00;99.90
2907;DHT22;1463;51.070;16.998;2023-07-13T11:00:46;25.00;99.90
2907;DHT22;1463;51.070;16.998;2023-07-13T11:03:20;25.10;99.90
2907;DHT22;1463;51.070;16.998;2023-07-13T11:06:06;25.30;99.90
2907;DHT22;1463;51.070;16.998;2023-07-13T11:08:36;25.40;99.90
2907;DHT22;1463;51.070;16.998;2023-07-13T11:11:32;25.30;99.90
2907;DHT22;1463;51.070;16.998;2023-07-13T11:14:02;25.60;99.90
2907;DHT22;1463;51.070;16.998;2023-07-13T11:16:36;25.70;99.90
2907;DHT22;1463;51.070;16.998;2023-07-13T11:19:28;25.70;99.90
2907;DHT22;1463;51.070;16.998;2023-07-13T11:22:20;25.70;99.90
2907;DHT22;1463;51.070;16.998;2023-07-13T11:24:51;25.60;99.90
2907;DHT22;1463;51.070;16.998;2023-07-13T11:27:23;25.50;99.90
2907;DHT22;1463;51.070;16.998;2023-07-13T11:30:22;25.50;99.90
2907;DHT22;1463;51.070;16.998;2023-07-13T11:32:52;25.40;99.90
2907;DHT22;1463;51.070;16.998;2023-07-13T11:35:33;25.20;99.90
2907;DHT22;1463;51.070;16.998;2023-07-13T11:38:03;25.20;99.90
2907;DHT22;1463;51.070;16.998;2023-07-13T11:40:37;25.20;99.90
2907;DHT22;1463;51.070;16.998;2023-07-13T11:43:06;25.20;99.90
2907;DHT22;1463;51.070;16.998;2023-07-13T11:45:34;25.30;99.90
2907;DHT22;1463;51.070;16.998;2023-07-13T11:48:02;25.20;99.90
2907;DHT22;1463;51.070;16.998;2023-07-13T11:50:29;25.20;99.90
2907;DHT22;1463;51.070;16.998;2023-07-13T11:52:59;25.30;99.90
2907;DHT22;1463;51.070;16.998;2023-07-13T11:55:29;25.30;99.90
2907;DHT22;1463;51.070;16.998;2023-07-13T11:57:59;25.20;99.90
2907;DHT22;1463;51.070;16.998;2023-07-13T12:00:29;25.20;99.90
2907;DHT22;1463;51.070;16.998;2023-07-13T12:03:00;25.20;99.90
2907;DHT22;1463;51.070;16.998;2023-07-13T12:05:30;25.30;99.90
2907;DHT22;1463;51.070;16.998;2023-07-13T12:07:58;25.20;99.90
2907;DHT22;1463;51.070;16.998;2023-07-13T12:10:29;25.30;99.90
2907;DHT22;1463;51.070;16.998;2023-07-13T12:13:00;25.50;99.90
2907;DHT22;1463;51.070;16.998;2023-07-13T12:15:34;25.60;99.90
2907;DHT22;1463;51.070;16.998;2023-07-13T12:18:11;25.80;99.90
2907;DHT22;1463;51.070;16.998;2023-07-13T12:20:40;25.90;99.90
2907;DHT22;1463;51.070;16.998;2023-07-13T12:23:14;26.00;99.90
2907;DHT22;1463;51.070;16.998;2023-07-13T12:25:49;26.20;99.90
2907;DHT22;1463;51.070;16.998;2023-07-13T12:28:21;26.10;99.90
2907;DHT22;1463;51.070;16.998;2023-07-13T12:30:50;26.20;99.90
2907;DHT22;1463;51.070;16.998;2023-07-13T12:33:27;26.20;99.90
2907;DHT22;1463;51.070;16.998;2023-07-13T12:35:57;26.30;99.90
2907;DHT22;1463;51.070;16.998;2023-07-13T12:38:27;26.40;99.90
2907;DHT22;1463;51.070;16.998;2023-07-13T12:40:57;26.30;99.90
2907;DHT22;1463;51.070;16.998;2023-07-13T12:43:26;26.30;99.90
2907;DHT22;1463;51.070;16.998;2023-07-13T12:45:59;26.20;99.90
2907;DHT22;1463;51.070;16.998;2023-07-13T12:48:27;26.10;99.90
2907;DHT22;1463;51.070;16.998;2023-07-13T12:50:56;26.10;99.90
2907;DHT22;1463;51.070;16.998;2023-07-13T12:53:39;26.20;99.90
2907;DHT22;1463;51.070;16.998;2023-07-13T12:56:16;26.20;99.90
2907;DHT22;1463;51.070;16.998;2023-07-13T12:58:49;26.20;98.40
2907;DHT22;1463;51.070;16.998;2023-07-13T13:01:21;26.10;99.10
2907;DHT22;1463;51.070;16.998;2023-07-13T13:03:51;26.10;99.10
2907;DHT22;1463;51.070;16.998;2023-07-13T13:06:22;26.20;99.20
2907;DHT22;1463;51.070;16.998;2023-07-13T13:08:54;26.20;99.70
2907;DHT22;1463;51.070;16.998;2023-07-13T13:11:24;26.20;99.90
2907;DHT22;1463;51.070;16.998;2023-07-13T13:13:53;26.10;99.90
2907;DHT22;1463;51.070;16.998;2023-07-13T13:16:23;26.20;99.90
2907;DHT22;1463;51.070;16.998;2023-07-13T13:18:55;26.20;99.90
2907;DHT22;1463;51.070;16.998;2023-07-13T13:21:24;26.30;99.90
2907;DHT22;1463;51.070;16.998;2023-07-13T13:23:52;26.40;99.10
2907;DHT22;1463;51.070;16.998;2023-07-13T13:26:21;26.50;98.00
2907;DHT22;1463;51.070;16.998;2023-07-13T13:28:53;26.50;97.50
2907;DHT22;1463;51.070;16.998;2023-07-13T13:31:20;26.50;96.80
2907;DHT22;1463;51.070;16.998;2023-07-13T13:33:48;26.50;96.20
2907;DHT22;1463;51.070;16.998;2023-07-13T13:36:21;26.40;95.00
2907;DHT22;1463;51.070;16.998;2023-07-13T13:38:50;26.50;95.70
2907;DHT22;1463;51.070;16.998;2023-07-13T13:41:18;26.50;94.70
2907;DHT22;1463;51.070;16.998;2023-07-13T13:43:45;26.60;95.50
2907;DHT22;1463;51.070;16.998;2023-07-13T13:46:18;26.70;94.30
2907;DHT22;1463;51.070;16.998;2023-07-13T13:48:47;26.80;94.60
2907;DHT22;1463;51.070;16.998;2023-07-13T13:51:17;26.90;93.80
2907;DHT22;1463;51.070;16.998;2023-07-13T13:53:46;26.90;93.20
2907;DHT22;1463;51.070;16.998;2023-07-13T13:56:15;27.00;91.60
2907;DHT22;1463;51.070;16.998;2023-07-13T13:58:43;27.00;92.50
2907;DHT22;1463;51.070;16.998;2023-07-13T14:01:13;27.00;91.60
2907;DHT22;1463;51.070;16.998;2023-07-13T14:03:46;27.10;90.40
2907;DHT22;1463;51.070;16.998;2023-07-13T14:06:15;27.00;88.70
2907;DHT22;1463;51.070;16.998;2023-07-13T14:08:47;27.00;86.60
2907;DHT22;1463;51.070;16.998;2023-07-13T14:11:16;27.00;86.20
2907;DHT22;1463;51.070;16.998;2023-07-13T14:13:47;27.00;87.40
2907;DHT22;1463;51.070;16.998;2023-07-13T14:16:17;27.00;83.30
2907;DHT22;1463;51.070;16.998;2023-07-13T14:18:48;27.00;84.60
2907;DHT22;1463;51.070;16.998;2023-07-13T14:21:17;27.00;82.40
2907;DHT22;1463;51.070;16.998;2023-07-13T14:23:46;27.10;80.30
2907;DHT22;1463;51.070;16.998;2023-07-13T14:26:15;27.10;82.50
2907;DHT22;1463;51.070;16.998;2023-07-13T14:28:44;27.20;82.40
2907;DHT22;1463;51.070;16.998;2023-07-13T14:31:13;27.30;83.60
2907;DHT22;1463;51.070;16.998;2023-07-13T14:33:42;27.30;83.40
2907;DHT22;1463;51.070;16.998;2023-07-13T14:36:21;27.40;83.80
2907;DHT22;1463;51.070;16.998;2023-07-13T14:38:51;27.30;79.10
2907;DHT22;1463;51.070;16.998;2023-07-13T14:41:19;27.20;83.30
2907;DHT22;1463;51.070;16.998;2023-07-13T14:43:47;27.20;83.30
2907;DHT22;1463;51.070;16.998;2023-07-13T14:46:29;27.30;76.50
2907;DHT22;1463;51.070;16.998;2023-07-13T14:49:02;27.40;77.00
2907;DHT22;1463;51.070;16.998;2023-07-13T14:51:32;27.30;77.10
2907;DHT22;1463;51.070;16.998;2023-07-13T14:54:03;27.30;76.00
2907;DHT22;1463;51.070;16.998;2023-07-13T14:56:30;27.30;77.50
2907;DHT22;1463;51.070;16.998;2023-07-13T14:58:58;27.30;77.60
2907;DHT22;1463;51.070;16.998;2023-07-13T15:01:25;27.30;78.00
2907;DHT22;1463;51.070;16.998;2023-07-13T15:03:54;27.20;77.60
2907;DHT22;1463;51.070;16.998;2023-07-13T15:06:21;27.20;78.10
2907;DHT22;1463;51.070;16.998;2023-07-13T15:08:50;27.20;77.50
2907;DHT22;1463;51.070;16.998;2023-07-13T15:11:17;27.20;77.00
2907;DHT22;1463;51.070;16.998;2023-07-13T15:13:45;27.20;78.50
2907;DHT22;1463;51.070;16.998;2023-07-13T15:16:16;27.10;76.30
2907;DHT22;1463;51.070;16.998;2023-07-13T15:18:45;27.00;77.90
2907;DHT22;1463;51.070;16.998;2023-07-13T15:21:18;26.80;77.90
2907;DHT22;1463;51.070;16.998;2023-07-13T15:23:46;26.90;76.70
2907;DHT22;1463;51.070;16.998;2023-07-13T15:26:17;26.90;76.70
2907;DHT22;1463;51.070;16.998;2023-07-13T15:28:45;26.90;77.70
2907;DHT22;1463;51.070;16.998;2023-07-13T15:31:19;26.90;76.70
2907;DHT22;1463;51.070;16.998;2023-07-13T15:33:49;27.00;77.80
2907;DHT22;1463;51.070;16.998;2023-07-13T15:36:18;27.00;78.00
2907;DHT22;1463;51.070;16.998;2023-07-13T15:38:46;27.00;78.50
2907;DHT22;1463;51.070;16.998;2023-07-13T15:41:18;27.00;78.40
2907;DHT22;1463;51.070;16.998;2023-07-13T15:43:49;27.00;79.40
2907;DHT22;1463;51.070;16.998;2023-07-13T15:46:18;27.10;79.10
2907;DHT22;1463;51.070;16.998;2023-07-13T15:48:47;27.10;79.60
2907;DHT22;1463;51.070;16.998;2023-07-13T15:51:22;27.10;79.30
2907;DHT22;1463;51.070;16.998;2023-07-13T15:53:52;27.10;81.10
2907;DHT22;1463;51.070;16.998;2023-07-13T15:56:24;27.00;79.60
2907;DHT22;1463;51.070;16.998;2023-07-13T15:58:52;26.90;76.60
2907;DHT22;1463;51.070;16.998;2023-07-13T16:01:23;26.90;77.10
2907;DHT22;1463;51.070;16.998;2023-07-13T16:03:51;26.90;78.20